Time;durP1;ratioP1;P1;durP2;ratioP2;P2;SDS_P1;SDS_P2;PMS_P1;PMS_P2;Temp;Humidity;BMP_temperature;BMP_pressure;BME280_temperature;BME280_humidity;BME280_pressure;Samples;Min_cycle;Max_cycle;Signal;HPM_P1;HPM_P2
2024/01/15 00:00:22;;;;;;;2.38;1.60;;;3.80;99.90;;;;;;5039100;28;20045;-76
2024/01/15 00:02:50;;;;;;;1.77;1.20;;;3.80;99.90;;;;;;5020863;28;20112;-76
2024/01/15 00:05:17;;;;;;;1.77;1.15;;;3.70;91.50;;;;;;5038918;28;20048;-76
2024/01/15 00:07:44;;;;;;;2.55;1.67;;;3.60;91.00;;;;;;5019503;28;20080;-76
2024/01/15 00:10:11;;;;;;;1.77;1.33;;;3.60;91.80;;;;;;5022917;28;20068;-75
2024/01/15 00:12:38;;;;;;;2.67;1.48;;;3.50;90.30;;;;;;5036624;28;20053;-75
2024/01/15 00:15:05;;;;;;;1.70;1.20;;;3.40;93.90;;;;;;5019250;28;20041;-76
2024/01/15 00:17:32;;;;;;;2.25;1.40;;;3.40;93.70;;;;;;5034156;28;20095;-75
2024/01/15 00:19:59;;;;;;;1.38;1.00;;;3.40;82.30;;;;;;5038467;28;20063;-76
2024/01/15 00:22:27;;;;;;;1.33;0.90;;;3.30;92.40;;;;;;5037024;28;20044;-75
2024/01/15 00:24:54;;;;;;;2.78;1.02;;;3.30;84.80;;;;;;5037741;28;20088;-75
2024/01/15 00:27:21;;;;;;;1.10;1.00;;;3.20;82.70;;;;;;5037180;28;20152;-75
2024/01/15 00:29:50;;;;;;;0.95;0.77;;;3.10;76.40;;;;;;5021826;28;20409;-75
2024/01/15 00:32:17;;;;;;;1.58;0.80;;;3.10;86.10;;;;;;5039633;28;20110;-76
2024/01/15 00:34:44;;;;;;;1.98;1.50;;;3.00;79.30;;;;;;5038291;28;20059;-75
2024/01/15 00:37:11;;;;;;;1.50;0.95;;;3.00;81.00;;;;;;5037601;28;20136;-75
2024/01/15 00:39:38;;;;;;;1.02;0.70;;;2.90;85.30;;;;;;5038036;28;20045;-75
2024/01/15 00:42:07;;;;;;;0.90;0.70;;;2.90;78.20;;;;;;5021183;28;20052;-75
2024/01/15 00:44:34;;;;;;;1.60;1.17;;;2.80;84.10;;;;;;5036929;28;20158;-75
2024/01/15 00:47:01;;;;;;;1.15;0.95;;;2.70;87.30;;;;;;5021367;28;20052;-75
2024/01/15 00:49:28;;;;;;;1.08;0.77;;;2.70;83.60;;;;;;5038037;28;20475;-76
2024/01/15 00:51:55;;;;;;;1.77;1.13;;;2.60;71.90;;;;;;5036056;28;20053;-76
2024/01/15 00:54:22;;;;;;;1.58;1.00;;;2.70;69.40;;;;;;5012426;28;20041;-76
2024/01/15 00:56:49;;;;;;;1.58;1.10;;;2.60;70.60;;;;;;5037223;28;20702;-75
2024/01/15 00:59:17;;;;;;;0.68;0.65;;;2.60;81.50;;;;;;5037600;28;20052;-76
2024/01/15 01:01:45;;;;;;;0.88;0.75;;;2.50;78.40;;;;;;5007634;28;20325;-76
2024/01/15 01:04:12;;;;;;;1.73;0.80;;;2.50;74.00;;;;;;5021495;28;20415;-76
2024/01/15 01:06:39;;;;;;;1.10;0.80;;;2.50;73.40;;;;;;5037289;28;20053;-76
2024/01/15 01:09:06;;;;;;;1.08;0.70;;;2.50;91.40;;;;;;5020520;28;20069;-76
2024/01/15 01:11:33;;;;;;;0.40;0.40;;;2.40;80.20;;;;;;5020857;28;20523;-75
2024/01/15 01:14:01;;;;;;;0.52;0.52;;;2.40;75.80;;;;;;5020395;28;20049;-76
2024/01/15 01:16:28;;;;;;;0.55;0.40;;;2.40;90.00;;;;;;5020906;28;20041;-76
2024/01/15 01:18:55;;;;;;;0.70;0.50;;;2.30;84.60;;;;;;5021184;28;20056;-76
2024/01/15 01:21:23;;;;;;;0.40;0.40;;;2.30;84.10;;;;;;5038117;28;20077;-76
2024/01/15 01:23:50;;;;;;;0.30;0.30;;;2.20;83.80;;;;;;5014615;28;20130;-75
2024/01/15 01:26:17;;;;;;;0.30;0.30;;;2.20;77.30;;;;;;5020220;28;20094;-76
2024/01/15 01:28:44;;;;;;;0.52;0.43;;;2.10;78.40;;;;;;5020748;28;20128;-76
2024/01/15 01:31:12;;;;;;;0.70;0.50;;;2.10;79.90;;;;;;5037007;28;20557;-76
2024/01/15 01:33:42;;;;;;;0.77;0.47;;;2.00;73.10;;;;;;5019596;28;20072;-75
2024/01/15 01:36:09;;;;;;;0.40;0.40;;;2.00;84.90;;;;;;5033839;28;20514;-76
2024/01/15 01:38:37;;;;;;;0.40;0.40;;;1.90;75.70;;;;;;5019770;28;20060;-76
2024/01/15 01:41:04;;;;;;;0.30;0.30;;;1.90;65.90;;;;;;5032830;28;20519;-76
2024/01/15 01:43:31;;;;;;;0.98;0.60;;;1.80;68.10;;;;;;5038283;28;20068;-76
2024/01/15 01:45:58;;;;;;;0.40;0.40;;;1.80;67.30;;;;;;5037589;28;20052;-76
2024/01/15 01:48:25;;;;;;;0.50;0.50;;;1.80;71.30;;;;;;5036666;28;20064;-76
2024/01/15 01:50:58;;;;;;;0.77;0.40;;;1.80;56.50;;;;;;5019229;28;20064;-76
2024/01/15 01:53:26;;;;;;;0.37;0.30;;;1.70;66.70;;;;;;5014750;28;20045;-76
2024/01/15 01:55:53;;;;;;;0.47;0.30;;;1.70;75.60;;;;;;5004887;28;20090;-76
2024/01/15 01:58:20;;;;;;;0.38;0.38;;;1.70;66.90;;;;;;5020312;28;20152;-76
2024/01/15 02:00:47;;;;;;;0.50;0.40;;;1.60;71.80;;;;;;5036743;28;20080;-75
2024/01/15 02:03:14;;;;;;;0.68;0.40;;;1.60;70.00;;;;;;5033579;28;20041;-76
2024/01/15 02:05:41;;;;;;;0.55;0.40;;;1.50;61.30;;;;;;5036155;28;20052;-76
2024/01/15 02:08:08;;;;;;;0.80;0.50;;;1.50;61.40;;;;;;5036762;28;20091;-76
2024/01/15 02:10:35;;;;;;;0.45;0.45;;;1.50;71.40;;;;;;5038204;28;20457;-75
2024/01/15 02:13:02;;;;;;;0.55;0.43;;;1.40;76.00;;;;;;5036462;28;20049;-76
2024/01/15 02:15:28;;;;;;;0.40;0.40;;;1.40;77.60;;;;;;5036475;28;20126;-76
2024/01/15 02:18:00;;;;;;;0.30;0.30;;;1.30;86.90;;;;;;5036823;28;20048;-76
2024/01/15 02:20:27;;;;;;;0.30;0.30;;;1.30;95.60;;;;;;5019822;28;20499;-76
2024/01/15 02:23:01;;;;;;;0.32;0.30;;;1.20;87.40;;;;;;5020393;28;20419;-76
2024/01/15 02:25:27;;;;;;;0.77;0.40;;;1.20;84.10;;;;;;5036361;28;20052;-76
2024/01/15 02:27:54;;;;;;;0.60;0.40;;;1.20;81.60;;;;;;5036638;28;20802;-76
2024/01/15 02:30:21;;;;;;;0.75;0.40;;;1.10;91.40;;;;;;5019871;28;20049;-77
2024/01/15 02:32:48;;;;;;;0.40;0.40;;;1.10;93.20;;;;;;5039891;28;20048;-76
2024/01/15 02:35:15;;;;;;;0.63;0.50;;;1.10;99.90;;;;;;5017025;28;20053;-75
2024/01/15 02:37:42;;;;;;;0.65;0.50;;;1.00;99.90;;;;;;5023470;28;20044;-75
2024/01/15 02:40:09;;;;;;;0.65;0.55;;;1.00;99.90;;;;;;5023193;28;20042;-76
2024/01/15 02:42:36;;;;;;;1.08;0.65;;;1.00;99.90;;;;;;5040108;28;20060;-76
2024/01/15 02:45:03;;;;;;;0.60;0.43;;;0.90;99.90;;;;;;5023707;28;20281;-75
2024/01/15 02:47:30;;;;;;;0.70;0.45;;;0.90;99.90;;;;;;5040391;28;20509;-77
2024/01/15 02:49:57;;;;;;;0.90;0.52;;;0.90;99.90;;;;;;5040050;28;20111;-75
2024/01/15 02:52:24;;;;;;;0.32;0.30;;;0.90;99.90;;;;;;5041034;28;20515;-76
2024/01/15 02:54:51;;;;;;;0.57;0.40;;;0.90;99.90;;;;;;5040119;28;20473;-75
2024/01/15 02:57:18;;;;;;;0.93;0.57;;;0.80;99.90;;;;;;5023615;28;20103;-75
2024/01/15 02:59:45;;;;;;;0.63;0.60;;;0.80;99.90;;;;;;5039206;28;20049;-75
2024/01/15 03:02:11;;;;;;;0.77;0.60;;;0.80;99.90;;;;;;5042619;28;20068;-75
2024/01/15 03:04:45;;;;;;;0.55;0.40;;;0.70;99.90;;;;;;5043615;28;20132;-74
2024/01/15 03:07:12;;;;;;;0.52;0.50;;;0.70;99.90;;;;;;5034564;28;20045;-74
2024/01/15 03:09:39;;;;;;;0.43;0.40;;;0.70;99.90;;;;;;5043694;28;20126;-75
2024/01/15 03:12:06;;;;;;;0.55;0.50;;;0.70;99.90;;;;;;5042443;28;20052;-75
2024/01/15 03:14:33;;;;;;;0.45;0.45;;;0.70;99.90;;;;;;5041103;28;20051;-75
2024/01/15 03:17:00;;;;;;;0.40;0.40;;;0.70;99.90;;;;;;5040093;28;20056;-75
2024/01/15 03:19:27;;;;;;;0.43;0.43;;;0.60;99.90;;;;;;5047388;28;20053;-75
2024/01/15 03:21:54;;;;;;;0.60;0.60;;;0.60;99.90;;;;;;5040764;28;20187;-75
2024/01/15 03:24:22;;;;;;;0.77;0.75;;;0.60;99.90;;;;;;5027217;28;20041;-75
2024/01/15 03:26:49;;;;;;;0.30;0.30;;;0.60;99.90;;;;;;5042596;28;20409;-75
2024/01/15 03:29:16;;;;;;;0.52;0.40;;;0.50;99.90;;;;;;5024609;28;20098;-75
2024/01/15 03:31:43;;;;;;;0.55;0.52;;;0.50;99.90;;;;;;5043349;28;20045;-75
2024/01/15 03:34:11;;;;;;;0.93;0.55;;;0.50;99.90;;;;;;5021317;28;20538;-75
2024/01/15 03:36:38;;;;;;;0.98;0.95;;;0.50;99.90;;;;;;5041215;28;20122;-75
2024/01/15 03:39:05;;;;;;;0.45;0.45;;;0.50;99.90;;;;;;5003511;28;20120;-75
2024/01/15 03:41:33;;;;;;;0.93;0.43;;;0.40;99.90;;;;;;5038827;28;20049;-76
2024/01/15 03:44:00;;;;;;;1.17;1.00;;;0.40;99.90;;;;;;5041219;28;20045;-76
2024/01/15 03:46:27;;;;;;;0.70;0.70;;;0.40;99.90;;;;;;5024535;28;20045;-76
2024/01/15 03:48:54;;;;;;;0.43;0.43;;;0.40;99.90;;;;;;5025287;28;20112;-76
2024/01/15 03:51:20;;;;;;;0.82;0.70;;;0.40;99.90;;;;;;5014856;28;20139;-76
2024/01/15 03:53:47;;;;;;;0.50;0.50;;;0.40;99.90;;;;;;5022604;28;20158;-76
2024/01/15 03:56:14;;;;;;;0.50;0.50;;;0.40;99.90;;;;;;5024481;28;20045;-76
2024/01/15 03:58:41;;;;;;;0.82;0.68;;;0.30;99.90;;;;;;5016305;28;20056;-76
2024/01/15 04:01:11;;;;;;;0.68;0.60;;;0.30;99.90;;;;;;5041813;28;20059;-76
2024/01/15 04:03:39;;;;;;;0.93;0.55;;;0.30;99.90;;;;;;5021119;28;20045;-76
2024/01/15 04:06:06;;;;;;;0.63;0.60;;;0.20;99.90;;;;;;5042380;28;20049;-76
2024/01/15 04:08:33;;;;;;;0.88;0.60;;;0.20;99.90;;;;;;5026243;28;20045;-76
2024/01/15 04:11:01;;;;;;;0.93;0.52;;;0.20;99.90;;;;;;5041576;28;20098;-76
2024/01/15 04:13:28;;;;;;;0.47;0.40;;;0.10;99.90;;;;;;5041902;28;20077;-76
2024/01/15 04:15:55;;;;;;;0.40;0.40;;;0.10;99.90;;;;;;5042742;28;20044;-75
2024/01/15 04:18:23;;;;;;;0.57;0.47;;;0.00;99.90;;;;;;5042551;28;20044;-76
2024/01/15 04:20:50;;;;;;;0.40;0.40;;;0.00;99.90;;;;;;5025120;28;20099;-76
2024/01/15 04:23:16;;;;;;;0.90;0.65;;;0.00;99.90;;;;;;5037671;28;20418;-76
2024/01/15 04:25:43;;;;;;;0.80;0.80;;;0.00;1.00;;;;;;5041905;28;20049;-76
2024/01/15 04:28:10;;;;;;;0.73;0.57;;;0.00;99.90;;;;;;5039734;28;20392;-76
2024/01/15 04:30:37;;;;;;;0.85;0.60;;;-0.10;99.90;;;;;;5042325;28;20057;-75
2024/01/15 04:33:04;;;;;;;0.57;0.55;;;-0.10;99.90;;;;;;5042204;28;20063;-77
2024/01/15 04:35:31;;;;;;;0.85;0.77;;;-0.10;99.90;;;;;;5041297;28;20136;-76
2024/01/15 04:37:58;;;;;;;1.02;0.70;;;-0.10;99.90;;;;;;5041694;28;20056;-76
2024/01/15 04:40:27;;;;;;;0.70;0.60;;;-0.10;99.90;;;;;;5042629;28;20052;-76
2024/01/15 04:42:54;;;;;;;0.85;0.70;;;-0.20;99.90;;;;;;5041685;28;20048;-76
2024/01/15 04:45:22;;;;;;;0.30;0.30;;;-0.20;1.00;;;;;;5018307;28;20866;-76
2024/01/15 04:47:49;;;;;;;0.68;0.60;;;-0.20;1.00;;;;;;5015840;28;20053;-76
2024/01/15 04:50:16;;;;;;;1.27;0.70;;;-0.20;1.00;;;;;;5039335;28;20051;-76
2024/01/15 04:52:43;;;;;;;0.60;0.50;;;-0.20;1.00;;;;;;5024355;28;20040;-75
2024/01/15 04:55:10;;;;;;;0.63;0.50;;;-0.20;1.00;;;;;;5043383;28;20047;-76
2024/01/15 04:57:37;;;;;;;0.68;0.50;;;-0.20;1.00;;;;;;5025610;28;20045;-76
2024/01/15 05:00:04;;;;;;;0.68;0.50;;;-0.20;1.00;;;;;;5041591;28;20117;-76
2024/01/15 05:02:31;;;;;;;0.57;0.57;;;-0.30;1.00;;;;;;5041389;28;20136;-75
2024/01/15 05:04:58;;;;;;;0.60;0.60;;;-0.30;1.00;;;;;;5041401;28;20068;-75
2024/01/15 05:07:25;;;;;;;0.35;0.35;;;-0.30;1.00;;;;;;5015133;28;20168;-75
2024/01/15 05:09:52;;;;;;;0.45;0.45;;;-0.30;1.00;;;;;;5042404;28;20053;-75
2024/01/15 05:12:19;;;;;;;0.40;0.40;;;-0.30;1.00;;;;;;5024702;28;20076;-75
2024/01/15 05:14:46;;;;;;;0.70;0.60;;;-0.30;1.00;;;;;;5040414;28;20534;-75
2024/01/15 05:17:13;;;;;;;0.55;0.55;;;-0.40;1.00;;;;;;5024591;28;20357;-74
2024/01/15 05:19:39;;;;;;;0.50;0.50;;;-0.40;1.00;;;;;;5039131;28;20438;-75
2024/01/15 05:22:07;;;;;;;0.30;0.30;;;-0.40;1.00;;;;;;5039515;28;20491;-75
2024/01/15 05:24:33;;;;;;;0.57;0.50;;;-0.40;1.00;;;;;;5039710;28;20048;-75
2024/01/15 05:27:00;;;;;;;0.50;0.50;;;-0.40;1.00;;;;;;5040229;28;20563;-76
2024/01/15 05:29:27;;;;;;;0.43;0.43;;;-0.40;1.00;;;;;;5024071;28;20145;-77
2024/01/15 05:31:54;;;;;;;0.95;0.60;;;-0.50;1.00;;;;;;5023271;28;20593;-76
2024/01/15 05:34:24;;;;;;;0.30;0.30;;;-0.50;1.00;;;;;;5019950;28;20534;-76
2024/01/15 05:36:52;;;;;;;0.55;0.50;;;-0.50;1.00;;;;;;5021534;28;20045;-77
2024/01/15 05:39:20;;;;;;;1.42;0.65;;;-0.50;9.00;;;;;;5015462;28;20095;-76
2024/01/15 05:41:49;;;;;;;0.57;0.50;;;-0.50;31.20;;;;;;5038466;28;20064;-76
2024/01/15 05:44:16;;;;;;;0.45;0.45;;;-0.50;55.90;;;;;;5041740;28;20056;-76
2024/01/15 05:46:43;;;;;;;0.77;0.57;;;-0.50;83.30;;;;;;5041068;28;20563;-76
2024/01/15 05:49:10;;;;;;;0.75;0.70;;;-0.50;96.90;;;;;;5023719;28;20041;-76
2024/01/15 05:51:37;;;;;;;0.75;0.57;;;-0.50;99.90;;;;;;5038679;28;20049;-76
2024/01/15 05:54:04;;;;;;;0.55;0.50;;;-0.50;99.90;;;;;;5024236;28;20055;-77
2024/01/15 05:56:31;;;;;;;0.55;0.50;;;-0.50;99.90;;;;;;5040497;28;20064;-75
2024/01/15 05:58:58;;;;;;;0.82;0.70;;;-0.50;99.90;;;;;;5040644;28;20045;-75
2024/01/15 06:01:25;;;;;;;0.55;0.55;;;-0.50;99.90;;;;;;5023246;28;20045;-76
2024/01/15 06:03:52;;;;;;;0.70;0.52;;;-0.50;99.90;;;;;;5015311;28;20046;-75
2024/01/15 06:06:19;;;;;;;0.50;0.50;;;-0.50;99.90;;;;;;5033532;28;20930;-74
2024/01/15 06:08:46;;;;;;;0.80;0.63;;;-0.60;99.90;;;;;;5018114;28;20064;-75
2024/01/15 06:11:13;;;;;;;0.40;0.40;;;-0.50;99.90;;;;;;5035537;28;20506;-75
2024/01/15 06:13:40;;;;;;;0.70;0.60;;;-0.50;99.90;;;;;;5015768;28;20286;-74
2024/01/15 06:16:16;;;;;;;0.75;0.70;;;-0.50;99.90;;;;;;5035232;28;20709;-77
2024/01/15 06:18:43;;;;;;;0.73;0.57;;;-0.50;99.90;;;;;;5014795;28;20140;-75
2024/01/15 06:21:12;;;;;;;0.57;0.52;;;-0.60;99.90;;;;;;5036284;28;20065;-74
2024/01/15 06:23:39;;;;;;;0.30;0.30;;;-0.60;99.90;;;;;;5035201;28;20498;-75
2024/01/15 06:26:06;;;;;;;0.47;0.47;;;-0.60;99.90;;;;;;5018731;28;20040;-74
2024/01/15 06:28:33;;;;;;;0.45;0.45;;;-0.60;99.90;;;;;;5019430;28;20444;-76
2024/01/15 06:31:00;;;;;;;0.98;0.65;;;-0.60;99.90;;;;;;5035415;28;20110;-75
2024/01/15 06:33:27;;;;;;;0.40;0.40;;;-0.60;99.90;;;;;;5037308;28;20048;-75
2024/01/15 06:35:54;;;;;;;0.70;0.65;;;-0.60;99.90;;;;;;5038558;28;20052;-75
2024/01/15 06:38:21;;;;;;;0.73;0.50;;;-0.60;99.90;;;;;;5020399;28;20617;-74
2024/01/15 06:40:48;;;;;;;1.27;0.70;;;-0.60;1.00;;;;;;5039959;28;20049;-75
2024/01/15 06:43:19;;;;;;;1.27;0.70;;;-0.60;1.00;;;;;;5040413;28;20518;-76
2024/01/15 06:45:46;;;;;;;0.80;0.60;;;-0.60;1.00;;;;;;5024248;28;20041;-74
2024/01/15 06:48:16;;;;;;;1.33;0.50;;;-0.60;1.00;;;;;;5039977;28;20531;-75
2024/01/15 06:50:43;;;;;;;0.73;0.50;;;-0.60;1.00;;;;;;5022691;28;20149;-75
2024/01/15 06:53:10;;;;;;;0.82;0.80;;;-0.60;1.00;;;;;;5023140;28;20049;-75
2024/01/15 06:55:38;;;;;;;0.55;0.50;;;-0.60;1.00;;;;;;5038903;28;20053;-75
2024/01/15 06:58:05;;;;;;;0.88;0.77;;;-0.60;4.60;;;;;;5039052;28;20049;-75
2024/01/15 07:00:32;;;;;;;1.05;0.68;;;-0.60;22.90;;;;;;5038131;28;20596;-75
2024/01/15 07:02:59;;;;;;;1.15;0.82;;;-0.60;33.00;;;;;;5024240;28;20052;-76
2024/01/15 07:05:26;;;;;;;0.93;0.60;;;-0.60;33.60;;;;;;5019186;28;20052;-76
2024/01/15 07:07:53;;;;;;;0.77;0.60;;;-0.60;26.70;;;;;;5039149;28;20107;-76
2024/01/15 07:10:20;;;;;;;0.95;0.60;;;-0.60;31.90;;;;;;5039377;28;20135;-76
2024/01/15 07:12:47;;;;;;;0.60;0.60;;;-0.60;25.50;;;;;;5036077;28;20517;-75
2024/01/15 07:15:15;;;;;;;0.98;0.60;;;-0.60;13.60;;;;;;5005268;28;20127;-74
2024/01/15 07:17:42;;;;;;;0.52;0.50;;;-0.60;23.50;;;;;;5037954;28;20099;-74
2024/01/15 07:20:10;;;;;;;0.55;0.50;;;-0.60;27.50;;;;;;5039512;28;20542;-74
2024/01/15 07:22:37;;;;;;;0.40;0.40;;;-0.60;28.70;;;;;;5024338;28;20129;-75
2024/01/15 07:25:06;;;;;;;0.45;0.45;;;-0.60;24.60;;;;;;5017203;28;20068;-74
2024/01/15 07:27:33;;;;;;;0.50;0.50;;;-0.60;13.30;;;;;;5040230;28;20048;-77
2024/01/15 07:30:04;;;;;;;0.95;0.75;;;-0.60;19.20;;;;;;5012866;28;20056;-74
2024/01/15 07:32:31;;;;;;;1.27;0.70;;;-0.60;25.70;;;;;;5019848;28;20049;-73
2024/01/15 07:34:59;;;;;;;0.40;0.40;;;-0.60;30.00;;;;;;5019593;28;20065;-73
2024/01/15 07:37:27;;;;;;;0.45;0.45;;;-0.60;1.00;;;;;;5036044;28;20053;-73
2024/01/15 07:39:54;;;;;;;0.52;0.50;;;-0.60;1.00;;;;;;5016823;28;20076;-73
2024/01/15 07:42:21;;;;;;;0.40;0.40;;;-0.60;1.00;;;;;;5025057;28;20052;-74
2024/01/15 07:44:50;;;;;;;0.65;0.40;;;-0.60;1.00;;;;;;5040089;28;20045;-74
2024/01/15 07:47:18;;;;;;;0.30;0.30;;;-0.50;1.00;;;;;;5040198;28;20052;-74
2024/01/15 07:49:45;;;;;;;0.40;0.40;;;-0.50;99.90;;;;;;5020696;28;20048;-74
2024/01/15 07:52:13;;;;;;;0.75;0.55;;;-0.60;99.90;;;;;;5030791;28;20558;-73
2024/01/15 07:54:40;;;;;;;0.40;0.40;;;-0.60;99.90;;;;;;5002866;28;20125;-74
2024/01/15 07:57:07;;;;;;;0.45;0.45;;;-0.60;99.90;;;;;;5020283;28;20563;-75
2024/01/15 07:59:35;;;;;;;0.52;0.45;;;-0.60;99.90;;;;;;5008739;28;20049;-75
2024/01/15 08:02:02;;;;;;;0.30;0.30;;;-0.70;99.90;;;;;;5008753;28;20056;-74
2024/01/15 08:04:29;;;;;;;0.52;0.50;;;-0.70;99.90;;;;;;5007486;28;20552;-73
2024/01/15 08:06:57;;;;;;;0.73;0.55;;;-0.70;99.90;;;;;;5006162;28;20056;-73
2024/01/15 08:09:23;;;;;;;0.60;0.60;;;-0.70;99.90;;;;;;5010354;28;20575;-73
2024/01/15 08:11:50;;;;;;;0.47;0.47;;;-0.70;99.90;;;;;;5009724;28;20147;-74
2024/01/15 08:14:17;;;;;;;0.60;0.45;;;-0.70;99.90;;;;;;5023127;28;20114;-74
2024/01/15 08:16:44;;;;;;;1.27;0.80;;;-0.70;99.90;;;;;;5006715;28;20459;-74
2024/01/15 08:19:11;;;;;;;0.60;0.50;;;-0.80;99.90;;;;;;5010011;28;20492;-73
2024/01/15 08:21:38;;;;;;;0.63;0.60;;;-0.70;99.90;;;;;;5026035;28;20053;-75
2024/01/15 08:24:05;;;;;;;0.50;0.50;;;-0.70;99.90;;;;;;5026113;28;20052;-74
2024/01/15 08:26:32;;;;;;;0.85;0.70;;;-0.70;99.90;;;;;;5042797;28;20052;-74
2024/01/15 08:28:59;;;;;;;0.50;0.50;;;-0.60;99.90;;;;;;5010661;28;20057;-73
2024/01/15 08:31:27;;;;;;;0.50;0.50;;;-0.60;99.90;;;;;;5009692;28;20101;-73
2024/01/15 08:33:55;;;;;;;0.45;0.45;;;-0.60;99.90;;;;;;5010032;28;20626;-73
2024/01/15 08:36:26;;;;;;;0.50;0.50;;;-0.50;99.90;;;;;;5006862;28;20045;-74
2024/01/15 08:38:54;;;;;;;1.45;0.70;;;-0.40;99.90;;;;;;5042461;28;20048;-74
2024/01/15 08:41:21;;;;;;;0.95;0.70;;;-0.40;99.90;;;;;;5043546;28;20049;-73
2024/01/15 08:43:47;;;;;;;0.77;0.57;;;-0.30;99.90;;;;;;5042082;28;20068;-73
2024/01/15 08:46:14;;;;;;;0.50;0.43;;;-0.20;99.90;;;;;;5042710;28;20124;-73
2024/01/15 08:48:41;;;;;;;0.70;0.60;;;-0.10;8.40;;;;;;5023061;28;20495;-74
2024/01/15 08:51:08;;;;;;;0.98;0.70;;;-0.10;1.00;;;;;;5041858;28;20044;-74
2024/01/15 08:53:35;;;;;;;1.45;0.95;;;-0.10;1.00;;;;;;5043696;28;20107;-75
2024/01/15 08:56:02;;;;;;;0.73;0.60;;;-0.10;99.90;;;;;;5043968;28;20055;-74
2024/01/15 08:58:30;;;;;;;0.65;0.52;;;-0.10;99.90;;;;;;5042536;28;20816;-77
2024/01/15 09:00:57;;;;;;;0.60;0.50;;;0.00;99.90;;;;;;5025944;28;20064;-76
2024/01/15 09:03:24;;;;;;;1.58;0.70;;;0.00;99.90;;;;;;5009872;28;20064;-76
2024/01/15 09:05:50;;;;;;;1.20;0.75;;;0.00;99.90;;;;;;5004227;28;20179;-77
2024/01/15 09:08:18;;;;;;;0.75;0.60;;;0.00;99.90;;;;;;5009713;28;20441;-78
2024/01/15 09:10:45;;;;;;;1.95;0.82;;;0.10;99.90;;;;;;5025242;28;20099;-77
2024/01/15 09:13:13;;;;;;;1.48;0.82;;;0.10;99.90;;;;;;5008776;28;20057;-77
2024/01/15 09:15:39;;;;;;;1.42;0.80;;;0.10;99.90;;;;;;5040264;28;20669;-77
2024/01/15 09:18:06;;;;;;;0.73;0.70;;;0.20;99.90;;;;;;5007893;28;20251;-76
2024/01/15 09:20:35;;;;;;;1.70;1.00;;;0.20;99.90;;;;;;5023465;28;20099;-74
2024/01/15 09:23:02;;;;;;;1.65;1.00;;;0.20;99.90;;;;;;5006979;28;20055;-74
2024/01/15 09:25:29;;;;;;;0.60;0.60;;;0.30;99.90;;;;;;5005465;28;20152;-75
2024/01/15 09:27:57;;;;;;;1.65;0.98;;;0.30;99.90;;;;;;5020739;28;20061;-74
2024/01/15 09:30:25;;;;;;;1.23;0.88;;;0.30;99.90;;;;;;5022395;28;20045;-75
2024/01/15 09:32:52;;;;;;;1.05;0.95;;;0.40;99.90;;;;;;5023621;28;21559;-76
2024/01/15 09:35:19;;;;;;;1.38;0.95;;;0.40;99.90;;;;;;5020007;28;20405;-75
2024/01/15 09:37:50;;;;;;;1.38;1.13;;;0.40;99.90;;;;;;5034861;28;20072;-75
2024/01/15 09:40:17;;;;;;;1.75;1.30;;;0.50;99.90;;;;;;5034031;28;20053;-75
2024/01/15 09:42:45;;;;;;;1.45;1.10;;;0.50;99.90;;;;;;5000736;28;20064;-75
2024/01/15 09:45:12;;;;;;;1.92;1.10;;;0.60;87.60;;;;;;5018143;28;20056;-74
2024/01/15 09:47:41;;;;;;;2.30;0.90;;;0.70;66.70;;;;;;5034756;28;20045;-74
2024/01/15 09:50:13;;;;;;;1.80;0.90;;;0.80;50.80;;;;;;5026491;28;20076;-73
2024/01/15 09:52:40;;;;;;;2.53;1.00;;;0.80;47.50;;;;;;5035422;28;20048;-75
2024/01/15 09:55:08;;;;;;;1.58;1.05;;;0.90;47.30;;;;;;5019883;28;20045;-77
2024/01/15 09:57:35;;;;;;;1.40;0.70;;;0.90;39.20;;;;;;5035960;28;20045;-77
2024/01/15 10:00:04;;;;;;;0.50;0.50;;;1.00;35.90;;;;;;5022538;28;20096;-77
2024/01/15 10:02:31;;;;;;;0.50;0.50;;;1.00;39.90;;;;;;5008606;28;20041;-78
2024/01/15 10:04:58;;;;;;;2.45;1.17;;;1.10;30.00;;;;;;5041509;28;20115;-78
2024/01/15 10:07:25;;;;;;;1.52;0.77;;;1.10;40.10;;;;;;5024500;28;20244;-78
2024/01/15 10:09:52;;;;;;;2.17;0.93;;;1.20;30.60;;;;;;5025939;28;20072;-78
2024/01/15 10:12:21;;;;;;;1.67;1.00;;;1.20;28.50;;;;;;5044518;28;20742;-77
2024/01/15 10:14:49;;;;;;;2.75;1.25;;;1.30;32.70;;;;;;5028944;28;20045;-77
2024/01/15 10:17:17;;;;;;;2.97;1.20;;;1.40;23.80;;;;;;5013183;28;20506;-77
2024/01/15 10:19:47;;;;;;;1.20;0.90;;;1.40;24.20;;;;;;5028990;28;20299;-76
2024/01/15 10:22:17;;;;;;;1.92;1.25;;;1.50;39.80;;;;;;5012082;28;20056;-76
2024/01/15 10:24:46;;;;;;;2.85;1.30;;;1.50;26.30;;;;;;5024938;28;20106;-76
2024/01/15 10:27:15;;;;;;;2.40;1.13;;;1.60;30.70;;;;;;5025564;28;20053;-76
2024/01/15 10:29:42;;;;;;;1.65;0.90;;;1.60;39.40;;;;;;5044768;28;20083;-76
2024/01/15 10:32:11;;;;;;;1.50;0.93;;;1.70;48.40;;;;;;5028136;28;20076;-76
2024/01/15 10:34:42;;;;;;;1.73;1.30;;;1.70;59.80;;;;;;5010389;28;20272;-76
2024/01/15 10:37:10;;;;;;;7.95;1.58;;;1.80;94.10;;;;;;5009555;28;20669;-76
2024/01/15 10:39:37;;;;;;;1.33;0.85;;;1.80;99.90;;;;;;5041918;28;20057;-76
2024/01/15 10:42:06;;;;;;;1.90;0.95;;;1.80;99.90;;;;;;5041165;28;20136;-77
2024/01/15 10:44:34;;;;;;;1.75;0.93;;;1.90;99.90;;;;;;5006523;28;20049;-77
2024/01/15 10:47:01;;;;;;;4.15;1.10;;;1.90;99.90;;;;;;5028142;28;20063;-77
2024/01/15 10:49:30;;;;;;;1.85;1.20;;;1.90;99.90;;;;;;5013836;28;20175;-83
2024/01/15 10:52:00;;;;;;;2.63;1.10;;;2.00;99.90;;;;;;5012185;28;20045;-75
2024/01/15 10:54:28;;;;;;;1.63;0.95;;;2.00;99.90;;;;;;5028495;28;20060;-76
2024/01/15 10:56:56;;;;;;;2.65;1.00;;;2.00;99.90;;;;;;5011637;28;20128;-75
2024/01/15 10:59:23;;;;;;;1.23;0.98;;;2.10;99.90;;;;;;5044366;28;20083;-74
2024/01/15 11:01:53;;;;;;;1.75;0.88;;;2.10;99.90;;;;;;5026268;28;20459;-76
2024/01/15 11:04:23;;;;;;;1.77;0.88;;;2.20;99.90;;;;;;5024550;28;20057;-76
2024/01/15 11:06:53;;;;;;;2.55;1.20;;;2.20;99.90;;;;;;5041029;28;20053;-80
2024/01/15 11:09:23;;;;;;;1.35;0.88;;;2.20;1.00;;;;;;5010439;28;20057;-78
2024/01/15 11:11:53;;;;;;;2.95;1.02;;;2.20;99.90;;;;;;5019265;28;20060;-76
2024/01/15 11:14:40;;;;;;;1.27;0.73;;;2.30;99.90;;;;;;5039812;28;20053;-75
2024/01/15 11:17:07;;;;;;;1.15;0.73;;;2.40;99.90;;;;;;5042623;28;20072;-77
2024/01/15 11:19:51;;;;;;;0.75;0.50;;;2.40;99.90;;;;;;5041581;28;20084;-76
2024/01/15 11:22:32;;;;;;;1.40;0.90;;;2.50;1.00;;;;;;5038903;28;20080;-76
2024/01/15 11:25:23;;;;;;;3.53;0.90;;;2.50;99.90;;;;;;5040579;28;20570;-76
2024/01/15 11:27:51;;;;;;;2.28;0.90;;;2.50;99.90;;;;;;5036107;28;20059;-76
2024/01/15 11:30:21;;;;;;;1.50;0.90;;;2.50;99.90;;;;;;5026276;28;20064;-75
2024/01/15 11:32:49;;;;;;;2.05;0.70;;;2.60;99.90;;;;;;5044443;28;20171;-75
2024/01/15 11:35:16;;;;;;;1.40;0.75;;;2.70;99.90;;;;;;5027497;28;20045;-74
2024/01/15 11:37:54;;;;;;;2.80;1.00;;;2.70;99.90;;;;;;5041348;28;20057;-74
2024/01/15 11:40:23;;;;;;;1.88;1.17;;;2.70;99.90;;;;;;5021512;28;20152;-74
2024/01/15 11:42:52;;;;;;;3.80;1.08;;;2.70;99.90;;;;;;5043325;28;20166;-75
2024/01/15 11:45:19;;;;;;;3.00;1.42;;;2.70;99.90;;;;;;5027485;28;20126;-75
2024/01/15 11:47:55;;;;;;;2.67;1.20;;;2.70;1.00;;;;;;5023861;28;20094;-75
2024/01/15 11:50:22;;;;;;;2.67;1.00;;;2.80;99.90;;;;;;5037598;28;20049;-75
2024/01/15 11:53:03;;;;;;;3.83;1.13;;;2.80;99.90;;;;;;5039256;28;20056;-75
2024/01/15 11:55:37;;;;;;;2.20;1.00;;;2.90;99.90;;;;;;5024335;28;20081;-75
2024/01/15 11:58:10;;;;;;;1.17;0.80;;;2.90;1.00;;;;;;5038300;28;20150;-75
2024/01/15 12:00:42;;;;;;;3.30;1.42;;;2.90;1.00;;;;;;5044330;28;20056;-72
2024/01/15 12:03:09;;;;;;;1.65;0.82;;;3.00;1.00;;;;;;5023631;28;20055;-75
2024/01/15 12:05:38;;;;;;;1.63;0.88;;;3.10;15.10;;;;;;5007205;28;20045;-76
2024/01/15 12:08:11;;;;;;;1.60;1.15;;;3.10;99.90;;;;;;5022672;28;20048;-76
2024/01/15 12:10:41;;;;;;;3.00;1.17;;;3.20;99.90;;;;;;5039962;28;20613;-75
2024/01/15 12:13:15;;;;;;;2.17;1.00;;;3.20;1.00;;;;;;5016088;28;20065;-75
2024/01/15 12:15:42;;;;;;;2.70;1.05;;;3.30;1.00;;;;;;5041782;28;20048;-75
2024/01/15 12:18:12;;;;;;;4.85;1.20;;;3.30;91.30;;;;;;5040982;28;20383;-74
2024/01/15 12:20:39;;;;;;;3.70;1.30;;;3.40;99.90;;;;;;5039819;28;20045;-75
2024/01/15 12:23:06;;;;;;;2.80;1.20;;;3.50;99.90;;;;;;5039774;28;20037;-74
2024/01/15 12:25:35;;;;;;;5.22;1.30;;;3.60;99.90;;;;;;5023556;28;20072;-74
2024/01/15 12:28:02;;;;;;;2.38;1.30;;;3.70;99.90;;;;;;5039367;28;20044;-74
2024/01/15 12:30:31;;;;;;;1.77;1.08;;;3.70;99.90;;;;;;5017808;28;20120;-74
2024/01/15 12:33:00;;;;;;;3.00;1.25;;;3.90;99.90;;;;;;5020962;28;20294;-74
2024/01/15 12:35:29;;;;;;;5.38;1.33;;;4.10;1.00;;;;;;5022871;28;20363;-75
2024/01/15 12:37:56;;;;;;;1.90;1.23;;;4.10;1.00;;;;;;5039219;28;20041;-76
2024/01/15 12:40:23;;;;;;;2.05;1.40;;;4.10;1.00;;;;;;5023065;28;20049;-76
2024/01/15 12:42:50;;;;;;;6.60;1.55;;;4.10;1.00;;;;;;5039219;28;20056;-76
2024/01/15 12:45:17;;;;;;;3.75;1.58;;;4.20;99.90;;;;;;5020434;28;20655;-76
2024/01/15 12:47:46;;;;;;;2.47;1.05;;;4.30;99.90;;;;;;5022215;28;20844;-76
2024/01/15 12:50:13;;;;;;;2.08;0.80;;;4.50;99.90;;;;;;5038920;28;20141;-76
2024/01/15 12:52:46;;;;;;;1.98;1.00;;;4.50;1.00;;;;;;5022337;28;20076;-76
2024/01/15 12:55:14;;;;;;;2.08;1.08;;;4.50;1.00;;;;;;5016722;28;20403;-75
2024/01/15 12:57:41;;;;;;;2.50;1.27;;;4.60;99.90;;;;;;5022362;28;20337;-76